sensor_id;sensor_type;location;lat;lon;timestamp;P1;durP1;ratioP1;P2;durP2;ratioP2
14088;SDS011;7120;52.890;6.040;2023-05-24T00:00:37;43.80;;;10.53;;
14088;SDS011;7120;52.890;6.040;2023-05-24T00:03:04;49.67;;;11.20;;
14088;SDS011;7120;52.890;6.040;2023-05-24T00:05:30;45.60;;;11.30;;
14088;SDS011;7120;52.890;6.040;2023-05-24T00:07:56;41.77;;;10.60;;
14088;SDS011;7120;52.890;6.040;2023-05-24T00:10:23;35.73;;;10.33;;
14088;SDS011;7120;52.890;6.040;2023-05-24T00:12:48;42.87;;;10.93;;
14088;SDS011;7120;52.890;6.040;2023-05-24T00:15:14;46.63;;;12.13;;
14088;SDS011;7120;52.890;6.040;2023-05-24T00:17:39;39.90;;;9.97;;
14088;SDS011;7120;52.890;6.040;2023-05-24T00:20:07;39.17;;;10.77;;
14088;SDS011;7120;52.890;6.040;2023-05-24T00:22:34;39.70;;;10.13;;
14088;SDS011;7120;52.890;6.040;2023-05-24T00:25:01;33.03;;;10.50;;
14088;SDS011;7120;52.890;6.040;2023-05-24T00:27:27;39.07;;;10.70;;
14088;SDS011;7120;52.890;6.040;2023-05-24T00:29:52;35.10;;;10.20;;
14088;SDS011;7120;52.890;6.040;2023-05-24T00:32:18;24.83;;;8.97;;
14088;SDS011;7120;52.890;6.040;2023-05-24T00:34:43;37.23;;;10.07;;
14088;SDS011;7120;52.890;6.040;2023-05-24T00:37:08;43.90;;;10.73;;
14088;SDS011;7120;52.890;6.040;2023-05-24T00:39:34;37.73;;;9.13;;
14088;SDS011;7120;52.890;6.040;2023-05-24T00:41:59;28.53;;;9.27;;
14088;SDS011;7120;52.890;6.040;2023-05-24T00:44:26;34.77;;;10.23;;
14088;SDS011;7120;52.890;6.040;2023-05-24T00:46:52;45.93;;;10.97;;
14088;SDS011;7120;52.890;6.040;2023-05-24T00:49:17;42.10;;;10.23;;
14088;SDS011;7120;52.890;6.040;2023-05-24T00:51:43;45.73;;;11.07;;
14088;SDS011;7120;52.890;6.040;2023-05-24T00:54:09;36.60;;;10.57;;
14088;SDS011;7120;52.890;6.040;2023-05-24T00:56:37;37.70;;;10.13;;
14088;SDS011;7120;52.890;6.040;2023-05-24T00:59:03;40.50;;;10.40;;
14088;SDS011;7120;52.890;6.040;2023-05-24T01:01:28;40.17;;;10.23;;
14088;SDS011;7120;52.890;6.040;2023-05-24T01:03:54;37.10;;;10.83;;
14088;SDS011;7120;52.890;6.040;2023-05-24T01:06:21;33.40;;;10.37;;
14088;SDS011;7120;52.890;6.040;2023-05-24T01:09:01;40.83;;;11.27;;
14088;SDS011;7120;52.890;6.040;2023-05-24T01:20:15;36.23;;;10.80;;
14088;SDS011;7120;52.890;6.040;2023-05-24T01:25:18;34.87;;;11.30;;
14088;SDS011;7120;52.890;6.040;2023-05-24T01:27:53;36.67;;;11.20;;
14088;SDS011;7120;52.890;6.040;2023-05-24T01:30:19;27.30;;;8.93;;
14088;SDS011;7120;52.890;6.040;2023-05-24T01:32:45;36.40;;;11.23;;
14088;SDS011;7120;52.890;6.040;2023-05-24T01:35:11;36.07;;;10.00;;
14088;SDS011;7120;52.890;6.040;2023-05-24T01:37:36;35.03;;;10.27;;
14088;SDS011;7120;52.890;6.040;2023-05-24T01:40:02;29.70;;;9.33;;
14088;SDS011;7120;52.890;6.040;2023-05-24T01:45:21;32.77;;;10.67;;
14088;SDS011;7120;52.890;6.040;2023-05-24T01:48:57;29.07;;;10.30;;
14088;SDS011;7120;52.890;6.040;2023-05-24T01:51:17;37.27;;;9.97;;
14088;SDS011;7120;52.890;6.040;2023-05-24T01:53:46;33.67;;;10.43;;
14088;SDS011;7120;52.890;6.040;2023-05-24T01:56:14;34.33;;;10.67;;
14088;SDS011;7120;52.890;6.040;2023-05-24T01:58:42;28.97;;;9.57;;
14088;SDS011;7120;52.890;6.040;2023-05-24T02:01:09;37.93;;;9.70;;
14088;SDS011;7120;52.890;6.040;2023-05-24T02:03:37;34.90;;;10.00;;
14088;SDS011;7120;52.890;6.040;2023-05-24T02:06:03;32.00;;;9.73;;
14088;SDS011;7120;52.890;6.040;2023-05-24T02:08:28;31.57;;;9.03;;
14088;SDS011;7120;52.890;6.040;2023-05-24T02:10:54;33.80;;;10.60;;
14088;SDS011;7120;52.890;6.040;2023-05-24T02:13:19;39.83;;;10.20;;
14088;SDS011;7120;52.890;6.040;2023-05-24T02:15:45;36.77;;;9.60;;
14088;SDS011;7120;52.890;6.040;2023-05-24T02:18:11;32.33;;;9.47;;
14088;SDS011;7120;52.890;6.040;2023-05-24T02:20:38;37.80;;;9.97;;
14088;SDS011;7120;52.890;6.040;2023-05-24T02:23:04;31.73;;;9.33;;
14088;SDS011;7120;52.890;6.040;2023-05-24T02:25:30;23.70;;;9.30;;
14088;SDS011;7120;52.890;6.040;2023-05-24T02:27:57;42.00;;;9.87;;
14088;SDS011;7120;52.890;6.040;2023-05-24T02:30:23;28.73;;;9.30;;
14088;SDS011;7120;52.890;6.040;2023-05-24T02:32:48;39.37;;;9.47;;
14088;SDS011;7120;52.890;6.040;2023-05-24T02:35:13;31.70;;;9.27;;
14088;SDS011;7120;52.890;6.040;2023-05-24T02:37:39;36.63;;;9.70;;
14088;SDS011;7120;52.890;6.040;2023-05-24T02:40:04;36.90;;;10.23;;
14088;SDS011;7120;52.890;6.040;2023-05-24T02:42:30;33.90;;;10.00;;
14088;SDS011;7120;52.890;6.040;2023-05-24T02:44:56;28.47;;;8.83;;
14088;SDS011;7120;52.890;6.040;2023-05-24T02:47:21;29.03;;;8.30;;
14088;SDS011;7120;52.890;6.040;2023-05-24T02:49:46;31.80;;;9.77;;
14088;SDS011;7120;52.890;6.040;2023-05-24T02:52:12;36.90;;;9.83;;
14088;SDS011;7120;52.890;6.040;2023-05-24T02:54:38;30.07;;;9.00;;
14088;SDS011;7120;52.890;6.040;2023-05-24T02:57:04;30.73;;;9.20;;
14088;SDS011;7120;52.890;6.040;2023-05-24T02:59:32;32.07;;;8.33;;
14088;SDS011;7120;52.890;6.040;2023-05-24T03:01:58;31.77;;;9.63;;
14088;SDS011;7120;52.890;6.040;2023-05-24T03:04:23;31.50;;;8.47;;
14088;SDS011;7120;52.890;6.040;2023-05-24T03:06:49;36.60;;;9.40;;
14088;SDS011;7120;52.890;6.040;2023-05-24T03:09:14;32.47;;;9.00;;
14088;SDS011;7120;52.890;6.040;2023-05-24T03:11:40;39.83;;;9.90;;
14088;SDS011;7120;52.890;6.040;2023-05-24T03:14:06;29.97;;;9.83;;
14088;SDS011;7120;52.890;6.040;2023-05-24T03:16:34;33.60;;;9.43;;
14088;SDS011;7120;52.890;6.040;2023-05-24T03:18:59;37.67;;;9.63;;
14088;SDS011;7120;52.890;6.040;2023-05-24T03:21:24;31.50;;;8.60;;
14088;SDS011;7120;52.890;6.040;2023-05-24T03:23:50;25.83;;;8.17;;
14088;SDS011;7120;52.890;6.040;2023-05-24T03:26:16;39.50;;;9.93;;
14088;SDS011;7120;52.890;6.040;2023-05-24T03:28:42;37.67;;;9.10;;
14088;SDS011;7120;52.890;6.040;2023-05-24T03:31:08;37.17;;;9.10;;
14088;SDS011;7120;52.890;6.040;2023-05-24T03:33:33;33.60;;;9.17;;
14088;SDS011;7120;52.890;6.040;2023-05-24T03:35:59;31.80;;;8.53;;
14088;SDS011;7120;52.890;6.040;2023-05-24T03:38:24;33.27;;;8.57;;
14088;SDS011;7120;52.890;6.040;2023-05-24T03:40:49;35.60;;;8.43;;
14088;SDS011;7120;52.890;6.040;2023-05-24T03:43:15;39.93;;;9.13;;
14088;SDS011;7120;52.890;6.040;2023-05-24T03:45:41;31.80;;;8.67;;
14088;SDS011;7120;52.890;6.040;2023-05-24T03:48:06;34.00;;;9.10;;
14088;SDS011;7120;52.890;6.040;2023-05-24T03:50:32;26.17;;;7.67;;
14088;SDS011;7120;52.890;6.040;2023-05-24T03:52:58;27.40;;;8.77;;
14088;SDS011;7120;52.890;6.040;2023-05-24T03:55:23;25.63;;;8.10;;
14088;SDS011;7120;52.890;6.040;2023-05-24T03:57:49;26.70;;;8.83;;
14088;SDS011;7120;52.890;6.040;2023-05-24T04:00:14;31.90;;;7.97;;
14088;SDS011;7120;52.890;6.040;2023-05-24T04:02:40;30.13;;;7.57;;
14088;SDS011;7120;52.890;6.040;2023-05-24T04:05:05;28.53;;;7.97;;
14088;SDS011;7120;52.890;6.040;2023-05-24T04:07:35;29.37;;;7.70;;
14088;SDS011;7120;52.890;6.040;2023-05-24T04:10:01;32.97;;;8.47;;
14088;SDS011;7120;52.890;6.040;2023-05-24T04:12:31;25.10;;;8.27;;
14088;SDS011;7120;52.890;6.040;2023-05-24T04:14:57;33.00;;;8.13;;
14088;SDS011;7120;52.890;6.040;2023-05-24T04:17:23;27.57;;;8.57;;
14088;SDS011;7120;52.890;6.040;2023-05-24T04:19:49;36.13;;;8.80;;
14088;SDS011;7120;52.890;6.040;2023-05-24T04:22:15;25.53;;;7.20;;
14088;SDS011;7120;52.890;6.040;2023-05-24T04:24:42;26.90;;;7.40;;
14088;SDS011;7120;52.890;6.040;2023-05-24T04:27:10;28.60;;;8.13;;
14088;SDS011;7120;52.890;6.040;2023-05-24T04:29:38;34.73;;;8.40;;
14088;SDS011;7120;52.890;6.040;2023-05-24T04:32:04;27.27;;;7.60;;
14088;SDS011;7120;52.890;6.040;2023-05-24T04:34:30;22.00;;;6.87;;
14088;SDS011;7120;52.890;6.040;2023-05-24T04:36:58;25.63;;;8.23;;
14088;SDS011;7120;52.890;6.040;2023-05-24T04:39:23;24.30;;;7.37;;
14088;SDS011;7120;52.890;6.040;2023-05-24T04:41:49;25.80;;;7.23;;
14088;SDS011;7120;52.890;6.040;2023-05-24T04:44:15;21.37;;;7.80;;
14088;SDS011;7120;52.890;6.040;2023-05-24T04:46:41;25.23;;;7.13;;
14088;SDS011;7120;52.890;6.040;2023-05-24T04:49:06;24.67;;;6.77;;
14088;SDS011;7120;52.890;6.040;2023-05-24T04:51:32;25.40;;;7.23;;
14088;SDS011;7120;52.890;6.040;2023-05-24T04:53:58;19.77;;;7.17;;
14088;SDS011;7120;52.890;6.040;2023-05-24T04:56:25;19.70;;;6.63;;
14088;SDS011;7120;52.890;6.040;2023-05-24T04:58:50;26.10;;;6.90;;
14088;SDS011;7120;52.890;6.040;2023-05-24T05:01:16;17.87;;;6.03;;
14088;SDS011;7120;52.890;6.040;2023-05-24T05:03:41;21.97;;;6.30;;
14088;SDS011;7120;52.890;6.040;2023-05-24T05:06:08;20.23;;;5.23;;
14088;SDS011;7120;52.890;6.040;2023-05-24T05:08:34;18.30;;;5.20;;
14088;SDS011;7120;52.890;6.040;2023-05-24T05:10:59;17.00;;;5.83;;
14088;SDS011;7120;52.890;6.040;2023-05-24T05:13:25;18.27;;;6.00;;
14088;SDS011;7120;52.890;6.040;2023-05-24T05:15:50;19.83;;;6.13;;
14088;SDS011;7120;52.890;6.040;2023-05-24T05:18:16;19.67;;;5.37;;
14088;SDS011;7120;52.890;6.040;2023-05-24T05:20:41;15.67;;;5.50;;
14088;SDS011;7120;52.890;6.040;2023-05-24T05:23:07;13.83;;;5.10;;
14088;SDS011;7120;52.890;6.040;2023-05-24T05:25:32;16.83;;;5.87;;
14088;SDS011;7120;52.890;6.040;2023-05-24T05:27:58;14.33;;;5.43;;
14088;SDS011;7120;52.890;6.040;2023-05-24T05:30:23;15.97;;;5.50;;
14088;SDS011;7120;52.890;6.040;2023-05-24T05:32:49;20.47;;;5.90;;
14088;SDS011;7120;52.890;6.040;2023-05-24T05:35:14;18.13;;;6.37;;
14088;SDS011;7120;52.890;6.040;2023-05-24T05:37:40;19.87;;;6.17;;
14088;SDS011;7120;52.890;6.040;2023-05-24T05:40:05;20.73;;;5.47;;
14088;SDS011;7120;52.890;6.040;2023-05-24T05:42:31;16.37;;;4.93;;
14088;SDS011;7120;52.890;6.040;2023-05-24T05:44:56;24.07;;;5.37;;
14088;SDS011;7120;52.890;6.040;2023-05-24T05:47:22;21.53;;;5.10;;
14088;SDS011;7120;52.890;6.040;2023-05-24T05:49:47;18.50;;;5.43;;
14088;SDS011;7120;52.890;6.040;2023-05-24T05:52:12;16.50;;;4.87;;
14088;SDS011;7120;52.890;6.040;2023-05-24T05:54:38;18.43;;;4.60;;
14088;SDS011;7120;52.890;6.040;2023-05-24T05:57:03;15.60;;;4.60;;
14088;SDS011;7120;52.890;6.040;2023-05-24T05:59:29;17.23;;;5.30;;
14088;SDS011;7120;52.890;6.040;2023-05-24T06:01:54;14.10;;;4.47;;
14088;SDS011;7120;52.890;6.040;2023-05-24T06:04:20;18.37;;;5.10;;
14088;SDS011;7120;52.890;6.040;2023-05-24T06:06:45;18.40;;;4.93;;
14088;SDS011;7120;52.890;6.040;2023-05-24T06:09:13;16.30;;;4.63;;
14088;SDS011;7120;52.890;6.040;2023-05-24T06:11:42;17.00;;;5.40;;
14088;SDS011;7120;52.890;6.040;2023-05-24T06:14:11;16.73;;;5.07;;
14088;SDS011;7120;52.890;6.040;2023-05-24T06:16:42;11.57;;;4.23;;
14088;SDS011;7120;52.890;6.040;2023-05-24T06:19:09;17.03;;;4.87;;
14088;SDS011;7120;52.890;6.040;2023-05-24T06:21:35;15.50;;;4.70;;
14088;SDS011;7120;52.890;6.040;2023-05-24T06:24:01;14.93;;;5.20;;
14088;SDS011;7120;52.890;6.040;2023-05-24T06:26:28;15.13;;;5.13;;
14088;SDS011;7120;52.890;6.040;2023-05-24T06:28:54;17.37;;;4.77;;
14088;SDS011;7120;52.890;6.040;2023-05-24T06:31:20;16.77;;;5.07;;
14088;SDS011;7120;52.890;6.040;2023-05-24T06:33:45;13.70;;;4.73;;
14088;SDS011;7120;52.890;6.040;2023-05-24T06:36:11;17.13;;;5.60;;
14088;SDS011;7120;52.890;6.040;2023-05-24T06:38:36;15.03;;;4.73;;
14088;SDS011;7120;52.890;6.040;2023-05-24T06:41:02;16.60;;;4.80;;
14088;SDS011;7120;52.890;6.040;2023-05-24T06:43:27;16.33;;;5.20;;
14088;SDS011;7120;52.890;6.040;2023-05-24T06:45:53;17.57;;;5.27;;
14088;SDS011;7120;52.890;6.040;2023-05-24T06:48:18;14.27;;;4.47;;
14088;SDS011;7120;52.890;6.040;2023-05-24T06:50:43;13.57;;;4.73;;
14088;SDS011;7120;52.890;6.040;2023-05-24T06:53:09;18.63;;;5.30;;
14088;SDS011;7120;52.890;6.040;2023-05-24T06:55:35;16.17;;;4.93;;
14088;SDS011;7120;52.890;6.040;2023-05-24T06:58:00;15.20;;;4.73;;
14088;SDS011;7120;52.890;6.040;2023-05-24T07:00:26;13.37;;;4.30;;
14088;SDS011;7120;52.890;6.040;2023-05-24T07:02:51;18.83;;;4.90;;
14088;SDS011;7120;52.890;6.040;2023-05-24T07:05:17;21.40;;;4.87;;
14088;SDS011;7120;52.890;6.040;2023-05-24T07:07:43;16.27;;;4.90;;
14088;SDS011;7120;52.890;6.040;2023-05-24T07:10:08;14.10;;;4.63;;
14088;SDS011;7120;52.890;6.040;2023-05-24T07:12:35;12.43;;;3.97;;
14088;SDS011;7120;52.890;6.040;2023-05-24T07:15:03;15.40;;;4.40;;
14088;SDS011;7120;52.890;6.040;2023-05-24T07:17:29;18.73;;;4.73;;
14088;SDS011;7120;52.890;6.040;2023-05-24T07:19:55;15.17;;;4.53;;
14088;SDS011;7120;52.890;6.040;2023-05-24T07:22:20;15.63;;;4.70;;
14088;SDS011;7120;52.890;6.040;2023-05-24T07:24:46;11.50;;;4.00;;
14088;SDS011;7120;52.890;6.040;2023-05-24T07:27:12;15.23;;;4.47;;
14088;SDS011;7120;52.890;6.040;2023-05-24T07:29:37;16.10;;;5.17;;
14088;SDS011;7120;52.890;6.040;2023-05-24T07:32:03;11.77;;;4.13;;
14088;SDS011;7120;52.890;6.040;2023-05-24T07:34:28;15.87;;;4.77;;
14088;SDS011;7120;52.890;6.040;2023-05-24T07:36:55;12.87;;;4.30;;
14088;SDS011;7120;52.890;6.040;2023-05-24T07:39:22;12.27;;;4.07;;
14088;SDS011;7120;52.890;6.040;2023-05-24T07:41:49;12.17;;;3.80;;
14088;SDS011;7120;52.890;6.040;2023-05-24T07:44:14;16.17;;;4.43;;
14088;SDS011;7120;52.890;6.040;2023-05-24T07:46:40;16.30;;;4.13;;
14088;SDS011;7120;52.890;6.040;2023-05-24T07:49:05;13.00;;;4.60;;
14088;SDS011;7120;52.890;6.040;2023-05-24T07:51:31;14.93;;;4.70;;
14088;SDS011;7120;52.890;6.040;2023-05-24T07:53:56;15.83;;;4.33;;
14088;SDS011;7120;52.890;6.040;2023-05-24T07:56:22;14.07;;;4.30;;
14088;SDS011;7120;52.890;6.040;2023-05-24T07:58:47;14.00;;;4.23;;
14088;SDS011;7120;52.890;6.040;2023-05-24T08:01:15;11.50;;;4.00;;
14088;SDS011;7120;52.890;6.040;2023-05-24T08:03:42;12.03;;;4.20;;
14088;SDS011;7120;52.890;6.040;2023-05-24T08:06:07;10.17;;;3.57;;
14088;SDS011;7120;52.890;6.040;2023-05-24T08:08:34;13.20;;;4.10;;
14088;SDS011;7120;52.890;6.040;2023-05-24T08:11:00;14.03;;;4.47;;
14088;SDS011;7120;52.890;6.040;2023-05-24T08:13:25;10.07;;;3.73;;
14088;SDS011;7120;52.890;6.040;2023-05-24T08:15:51;10.47;;;3.37;;
14088;SDS011;7120;52.890;6.040;2023-05-24T08:18:16;10.97;;;3.40;;
14088;SDS011;7120;52.890;6.040;2023-05-24T08:20:42;11.17;;;3.93;;
14088;SDS011;7120;52.890;6.040;2023-05-24T08:23:07;12.97;;;3.40;;
14088;SDS011;7120;52.890;6.040;2023-05-24T08:25:32;9.87;;;3.27;;
14088;SDS011;7120;52.890;6.040;2023-05-24T08:27:58;12.97;;;4.03;;
14088;SDS011;7120;52.890;6.040;2023-05-24T08:30:23;13.73;;;3.80;;
14088;SDS011;7120;52.890;6.040;2023-05-24T08:32:48;10.40;;;3.60;;
14088;SDS011;7120;52.890;6.040;2023-05-24T08:35:15;13.37;;;4.23;;
14088;SDS011;7120;52.890;6.040;2023-05-24T08:37:40;13.10;;;4.03;;
14088;SDS011;7120;52.890;6.040;2023-05-24T08:40:06;11.47;;;4.00;;
14088;SDS011;7120;52.890;6.040;2023-05-24T08:42:33;15.50;;;4.80;;
14088;SDS011;7120;52.890;6.040;2023-05-24T08:45:03;10.37;;;4.07;;
14088;SDS011;7120;52.890;6.040;2023-05-24T08:47:33;9.03;;;3.77;;
14088;SDS011;7120;52.890;6.040;2023-05-24T08:50:01;10.30;;;3.77;;
14088;SDS011;7120;52.890;6.040;2023-05-24T08:52:28;10.70;;;3.60;;
14088;SDS011;7120;52.890;6.040;2023-05-24T08:54:57;10.27;;;4.03;;
14088;SDS011;7120;52.890;6.040;2023-05-24T08:57:24;12.67;;;3.50;;
14088;SDS011;7120;52.890;6.040;2023-05-24T08:59:51;7.90;;;3.40;;
14088;SDS011;7120;52.890;6.040;2023-05-24T09:02:18;15.33;;;4.20;;
14088;SDS011;7120;52.890;6.040;2023-05-24T09:04:45;13.83;;;4.17;;
14088;SDS011;7120;52.890;6.040;2023-05-24T09:07:13;11.37;;;4.20;;
14088;SDS011;7120;52.890;6.040;2023-05-24T09:09:42;8.07;;;3.57;;
14088;SDS011;7120;52.890;6.040;2023-05-24T09:12:12;10.63;;;3.70;;
14088;SDS011;7120;52.890;6.040;2023-05-24T09:14:41;10.87;;;3.73;;
14088;SDS011;7120;52.890;6.040;2023-05-24T09:17:10;9.13;;;3.60;;
14088;SDS011;7120;52.890;6.040;2023-05-24T09:19:39;12.03;;;3.37;;
14088;SDS011;7120;52.890;6.040;2023-05-24T09:22:07;11.70;;;3.67;;
14088;SDS011;7120;52.890;6.040;2023-05-24T09:24:39;10.80;;;4.20;;
14088;SDS011;7120;52.890;6.040;2023-05-24T09:27:05;11.37;;;4.00;;
14088;SDS011;7120;52.890;6.040;2023-05-24T09:29:34;9.73;;;3.83;;
14088;SDS011;7120;52.890;6.040;2023-05-24T09:32:00;11.93;;;4.07;;
14088;SDS011;7120;52.890;6.040;2023-05-24T09:34:26;10.07;;;4.17;;
14088;SDS011;7120;52.890;6.040;2023-05-24T09:36:51;14.67;;;4.17;;
14088;SDS011;7120;52.890;6.040;2023-05-24T09:39:17;9.63;;;3.87;;
14088;SDS011;7120;52.890;6.040;2023-05-24T09:41:45;11.93;;;4.50;;
14088;SDS011;7120;52.890;6.040;2023-05-24T09:44:22;11.23;;;3.60;;
14088;SDS011;7120;52.890;6.040;2023-05-24T09:46:48;9.23;;;3.70;;
14088;SDS011;7120;52.890;6.040;2023-05-24T09:49:14;9.67;;;4.00;;
14088;SDS011;7120;52.890;6.040;2023-05-24T09:51:39;13.07;;;3.70;;
14088;SDS011;7120;52.890;6.040;2023-05-24T09:54:05;10.97;;;4.43;;
14088;SDS011;7120;52.890;6.040;2023-05-24T09:56:32;8.90;;;3.43;;
14088;SDS011;7120;52.890;6.040;2023-05-24T09:59:03;9.97;;;3.90;;
14088;SDS011;7120;52.890;6.040;2023-05-24T10:01:29;9.13;;;3.70;;
14088;SDS011;7120;52.890;6.040;2023-05-24T10:03:57;11.30;;;3.80;;
14088;SDS011;7120;52.890;6.040;2023-05-24T10:06:24;13.67;;;4.60;;
14088;SDS011;7120;52.890;6.040;2023-05-24T10:08:50;12.43;;;4.33;;
14088;SDS011;7120;52.890;6.040;2023-05-24T10:11:16;13.17;;;4.10;;
14088;SDS011;7120;52.890;6.040;2023-05-24T10:13:43;12.40;;;3.83;;
14088;SDS011;7120;52.890;6.040;2023-05-24T10:16:08;14.77;;;3.90;;
14088;SDS011;7120;52.890;6.040;2023-05-24T10:18:34;8.47;;;3.60;;
14088;SDS011;7120;52.890;6.040;2023-05-24T10:21:00;12.03;;;3.63;;
14088;SDS011;7120;52.890;6.040;2023-05-24T10:23:29;13.03;;;3.90;;
14088;SDS011;7120;52.890;6.040;2023-05-24T10:26:03;11.93;;;3.70;;
14088;SDS011;7120;52.890;6.040;2023-05-24T10:28:32;10.73;;;4.03;;
14088;SDS011;7120;52.890;6.040;2023-05-24T10:31:09;12.73;;;3.90;;
14088;SDS011;7120;52.890;6.040;2023-05-24T10:33:39;11.60;;;3.80;;
14088;SDS011;7120;52.890;6.040;2023-05-24T10:36:08;9.00;;;4.00;;
14088;SDS011;7120;52.890;6.040;2023-05-24T10:38:38;9.53;;;3.47;;
14088;SDS011;7120;52.890;6.040;2023-05-24T10:41:04;10.23;;;4.23;;
14088;SDS011;7120;52.890;6.040;2023-05-24T10:43:32;11.77;;;4.17;;
14088;SDS011;7120;52.890;6.040;2023-05-24T10:46:00;11.17;;;3.43;;
14088;SDS011;7120;52.890;6.040;2023-05-24T10:50:53;9.37;;;3.50;;
14088;SDS011;7120;52.890;6.040;2023-05-24T10:53:20;7.43;;;3.30;;
14088;SDS011;7120;52.890;6.040;2023-05-24T10:55:51;9.00;;;3.77;;
14088;SDS011;7120;52.890;6.040;2023-05-24T10:58:25;10.70;;;3.87;;
14088;SDS011;7120;52.890;6.040;2023-05-24T11:01:09;12.10;;;4.40;;
14088;SDS011;7120;52.890;6.040;2023-05-24T11:03:39;9.00;;;3.93;;
14088;SDS011;7120;52.890;6.040;2023-05-24T11:06:05;10.30;;;3.80;;
14088;SDS011;7120;52.890;6.040;2023-05-24T11:08:32;9.13;;;3.83;;
14088;SDS011;7120;52.890;6.040;2023-05-24T11:11:08;9.57;;;3.73;;
14088;SDS011;7120;52.890;6.040;2023-05-24T11:13:44;7.20;;;3.30;;
14088;SDS011;7120;52.890;6.040;2023-05-24T11:16:31;9.43;;;3.80;;
14088;SDS011;7120;52.890;6.040;2023-05-24T11:18:57;9.37;;;3.67;;
14088;SDS011;7120;52.890;6.040;2023-05-24T11:21:35;7.17;;;4.00;;
14088;SDS011;7120;52.890;6.040;2023-05-24T11:24:01;10.57;;;4.77;;
14088;SDS011;7120;52.890;6.040;2023-05-24T11:26:27;8.70;;;3.93;;
14088;SDS011;7120;52.890;6.040;2023-05-24T11:28:53;8.00;;;3.87;;
14088;SDS011;7120;52.890;6.040;2023-05-24T11:31:19;12.63;;;4.40;;
14088;SDS011;7120;52.890;6.040;2023-05-24T11:33:51;7.37;;;3.27;;
14088;SDS011;7120;52.890;6.040;2023-05-24T11:36:17;7.67;;;3.37;;
14088;SDS011;7120;52.890;6.040;2023-05-24T11:38:45;8.27;;;3.73;;
14088;SDS011;7120;52.890;6.040;2023-05-24T11:41:11;7.20;;;3.20;;
14088;SDS011;7120;52.890;6.040;2023-05-24T11:43:37;9.63;;;3.33;;
14088;SDS011;7120;52.890;6.040;2023-05-24T11:46:02;6.87;;;2.93;;
14088;SDS011;7120;52.890;6.040;2023-05-24T11:48:28;5.60;;;3.00;;
14088;SDS011;7120;52.890;6.040;2023-05-24T11:50:54;6.70;;;2.93;;
14088;SDS011;7120;52.890;6.040;2023-05-24T11:53:20;5.10;;;2.77;;
14088;SDS011;7120;52.890;6.040;2023-05-24T11:55:46;6.83;;;3.10;;
14088;SDS011;7120;52.890;6.040;2023-05-24T12:00:46;6.43;;;2.70;;
14088;SDS011;7120;52.890;6.040;2023-05-24T12:03:12;6.40;;;2.93;;
14088;SDS011;7120;52.890;6.040;2023-05-24T12:05:37;4.33;;;2.60;;
14088;SDS011;7120;52.890;6.040;2023-05-24T12:10:30;7.67;;;2.93;;
14088;SDS011;7120;52.890;6.040;2023-05-24T12:12:59;5.70;;;2.77;;
14088;SDS011;7120;52.890;6.040;2023-05-24T12:15:26;5.27;;;2.80;;
14088;SDS011;7120;52.890;6.040;2023-05-24T12:17:52;8.73;;;3.57;;
14088;SDS011;7120;52.890;6.040;2023-05-24T12:20:17;6.10;;;2.77;;
14088;SDS011;7120;52.890;6.040;2023-05-24T12:22:47;8.10;;;2.93;;
14088;SDS011;7120;52.890;6.040;2023-05-24T12:25:16;7.67;;;3.20;;
14088;SDS011;7120;52.890;6.040;2023-05-24T12:27:45;5.13;;;2.83;;
14088;SDS011;7120;52.890;6.040;2023-05-24T12:30:14;10.63;;;3.23;;
14088;SDS011;7120;52.890;6.040;2023-05-24T12:32:45;6.10;;;2.87;;
14088;SDS011;7120;52.890;6.040;2023-05-24T12:35:12;5.63;;;3.07;;
14088;SDS011;7120;52.890;6.040;2023-05-24T12:37:37;5.17;;;2.63;;
14088;SDS011;7120;52.890;6.040;2023-05-24T12:40:13;7.27;;;3.13;;
14088;SDS011;7120;52.890;6.040;2023-05-24T12:42:39;9.07;;;3.63;;
14088;SDS011;7120;52.890;6.040;2023-05-24T12:45:05;7.73;;;3.13;;
14088;SDS011;7120;52.890;6.040;2023-05-24T12:47:31;8.73;;;2.80;;
14088;SDS011;7120;52.890;6.040;2023-05-24T12:49:56;7.37;;;3.40;;
14088;SDS011;7120;52.890;6.040;2023-05-24T12:52:22;7.03;;;3.03;;
14088;SDS011;7120;52.890;6.040;2023-05-24T12:54:47;6.70;;;3.17;;
14088;SDS011;7120;52.890;6.040;2023-05-24T12:57:13;4.80;;;2.60;;
14088;SDS011;7120;52.890;6.040;2023-05-24T12:59:38;5.43;;;2.83;;
14088;SDS011;7120;52.890;6.040;2023-05-24T13:02:03;6.67;;;3.17;;
14088;SDS011;7120;52.890;6.040;2023-05-24T13:04:29;8.27;;;3.47;;
14088;SDS011;7120;52.890;6.040;2023-05-24T13:06:57;5.63;;;3.23;;
14088;SDS011;7120;52.890;6.040;2023-05-24T13:09:22;8.27;;;3.60;;
14088;SDS011;7120;52.890;6.040;2023-05-24T13:11:49;8.10;;;3.60;;
14088;SDS011;7120;52.890;6.040;2023-05-24T13:14:15;5.83;;;2.53;;
14088;SDS011;7120;52.890;6.040;2023-05-24T13:16:40;6.60;;;2.80;;
14088;SDS011;7120;52.890;6.040;2023-05-24T13:19:06;5.27;;;2.87;;
14088;SDS011;7120;52.890;6.040;2023-05-24T13:21:32;7.47;;;3.83;;
14088;SDS011;7120;52.890;6.040;2023-05-24T13:23:57;8.47;;;3.27;;
14088;SDS011;7120;52.890;6.040;2023-05-24T13:26:23;6.50;;;3.30;;
14088;SDS011;7120;52.890;6.040;2023-05-24T13:28:48;10.47;;;2.97;;
14088;SDS011;7120;52.890;6.040;2023-05-24T13:31:13;7.20;;;3.17;;
14088;SDS011;7120;52.890;6.040;2023-05-24T13:33:39;6.23;;;2.90;;
14088;SDS011;7120;52.890;6.040;2023-05-24T13:36:04;4.03;;;2.83;;
14088;SDS011;7120;52.890;6.040;2023-05-24T13:38:31;4.87;;;2.63;;
14088;SDS011;7120;52.890;6.040;2023-05-24T13:40:56;8.67;;;2.90;;
14088;SDS011;7120;52.890;6.040;2023-05-24T13:43:22;8.17;;;2.87;;
14088;SDS011;7120;52.890;6.040;2023-05-24T13:45:47;3.93;;;2.30;;
14088;SDS011;7120;52.890;6.040;2023-05-24T13:48:12;7.73;;;2.93;;
14088;SDS011;7120;52.890;6.040;2023-05-24T13:50:38;7.03;;;2.97;;
14088;SDS011;7120;52.890;6.040;2023-05-24T13:53:03;7.27;;;3.07;;
14088;SDS011;7120;52.890;6.040;2023-05-24T13:55:30;7.13;;;2.87;;
14088;SDS011;7120;52.890;6.040;2023-05-24T13:58:00;4.97;;;2.37;;
14088;SDS011;7120;52.890;6.040;2023-05-24T14:00:26;8.33;;;2.60;;
14088;SDS011;7120;52.890;6.040;2023-05-24T14:02:51;8.47;;;3.33;;
14088;SDS011;7120;52.890;6.040;2023-05-24T14:05:17;7.50;;;2.60;;
14088;SDS011;7120;52.890;6.040;2023-05-24T14:07:43;6.93;;;2.70;;
14088;SDS011;7120;52.890;6.040;2023-05-24T14:10:09;4.43;;;2.57;;
14088;SDS011;7120;52.890;6.040;2023-05-24T14:12:35;5.30;;;2.57;;
14088;SDS011;7120;52.890;6.040;2023-05-24T14:15:00;7.03;;;2.47;;
14088;SDS011;7120;52.890;6.040;2023-05-24T14:17:26;5.43;;;3.07;;
14088;SDS011;7120;52.890;6.040;2023-05-24T14:19:52;6.90;;;2.97;;
14088;SDS011;7120;52.890;6.040;2023-05-24T14:22:17;5.43;;;2.70;;
14088;SDS011;7120;52.890;6.040;2023-05-24T14:24:43;7.53;;;3.20;;
14088;SDS011;7120;52.890;6.040;2023-05-24T14:27:08;6.60;;;3.00;;
14088;SDS011;7120;52.890;6.040;2023-05-24T14:29:33;6.00;;;2.70;;
14088;SDS011;7120;52.890;6.040;2023-05-24T14:31:59;8.63;;;2.93;;
14088;SDS011;7120;52.890;6.040;2023-05-24T14:34:25;6.10;;;3.03;;
14088;SDS011;7120;52.890;6.040;2023-05-24T14:36:50;6.80;;;3.07;;
14088;SDS011;7120;52.890;6.040;2023-05-24T14:39:15;4.80;;;2.63;;
14088;SDS011;7120;52.890;6.040;2023-05-24T14:41:41;8.27;;;3.20;;
14088;SDS011;7120;52.890;6.040;2023-05-24T14:44:06;7.70;;;3.43;;
14088;SDS011;7120;52.890;6.040;2023-05-24T14:46:31;6.90;;;2.90;;
14088;SDS011;7120;52.890;6.040;2023-05-24T14:48:57;8.20;;;3.40;;
14088;SDS011;7120;52.890;6.040;2023-05-24T14:51:22;5.27;;;2.90;;
14088;SDS011;7120;52.890;6.040;2023-05-24T14:53:48;9.20;;;3.37;;
14088;SDS011;7120;52.890;6.040;2023-05-24T14:56:13;6.30;;;3.37;;
14088;SDS011;7120;52.890;6.040;2023-05-24T14:58:40;6.13;;;3.23;;
14088;SDS011;7120;52.890;6.040;2023-05-24T15:01:05;8.77;;;3.13;;
14088;SDS011;7120;52.890;6.040;2023-05-24T15:03:31;7.60;;;3.47;;
14088;SDS011;7120;52.890;6.040;2023-05-24T15:05:57;8.30;;;3.40;;
14088;SDS011;7120;52.890;6.040;2023-05-24T15:08:23;9.20;;;3.63;;